sensor_id;sensor_type;location;lat;lon;timestamp;temperature;humidity
37910;DHT22;23741;49.446;8.754;2023-02-02T00:00:25;10.40;66.00
37910;DHT22;23741;49.446;8.754;2023-02-02T00:02:26;10.40;66.10
37910;DHT22;23741;49.446;8.754;2023-02-02T00:04:29;10.40;66.20
37910;DHT22;23741;49.446;8.754;2023-02-02T00:06:32;10.40;66.20
37910;DHT22;23741;49.446;8.754;2023-02-02T00:08:33;10.40;66.30
37910;DHT22;23741;49.446;8.754;2023-02-02T00:10:36;10.40;66.40
37910;DHT22;23741;49.446;8.754;2023-02-02T00:12:38;10.40;66.40
37910;DHT22;23741;49.446;8.754;2023-02-02T00:14:40;10.40;66.40
37910;DHT22;23741;49.446;8.754;2023-02-02T00:16:43;10.50;66.50
37910;DHT22;23741;49.446;8.754;2023-02-02T00:18:45;10.50;66.60
37910;DHT22;23741;49.446;8.754;2023-02-02T00:20:46;10.50;66.60
37910;DHT22;23741;49.446;8.754;2023-02-02T00:22:50;10.50;66.50
37910;DHT22;23741;49.446;8.754;2023-02-02T00:24:52;10.50;66.50
37910;DHT22;23741;49.446;8.754;2023-02-02T00:26:56;10.50;66.60
37910;DHT22;23741;49.446;8.754;2023-02-02T00:28:57;10.50;66.70
37910;DHT22;23741;49.446;8.754;2023-02-02T00:30:59;10.50;66.70
37910;DHT22;23741;49.446;8.754;2023-02-02T00:33:01;10.50;66.60
37910;DHT22;23741;49.446;8.754;2023-02-02T00:35:02;10.50;66.60
37910;DHT22;23741;49.446;8.754;2023-02-02T00:37:04;10.50;66.50
37910;DHT22;23741;49.446;8.754;2023-02-02T00:39:06;10.50;66.60
37910;DHT22;23741;49.446;8.754;2023-02-02T00:41:08;10.50;66.80
37910;DHT22;23741;49.446;8.754;2023-02-02T00:43:10;10.50;66.80
37910;DHT22;23741;49.446;8.754;2023-02-02T00:45:12;10.50;66.80
37910;DHT22;23741;49.446;8.754;2023-02-02T00:47:16;10.50;66.80
37910;DHT22;23741;49.446;8.754;2023-02-02T00:49:18;10.50;66.80
37910;DHT22;23741;49.446;8.754;2023-02-02T00:51:20;10.50;67.00
37910;DHT22;23741;49.446;8.754;2023-02-02T00:53:21;10.50;67.00
37910;DHT22;23741;49.446;8.754;2023-02-02T00:55:24;10.50;67.00
37910;DHT22;23741;49.446;8.754;2023-02-02T00:57:26;10.50;67.10
37910;DHT22;23741;49.446;8.754;2023-02-02T00:59:28;10.50;67.10
37910;DHT22;23741;49.446;8.754;2023-02-02T01:01:29;10.50;67.10
37910;DHT22;23741;49.446;8.754;2023-02-02T01:03:31;10.50;67.20
37910;DHT22;23741;49.446;8.754;2023-02-02T01:05:33;10.50;67.90
37910;DHT22;23741;49.446;8.754;2023-02-02T01:07:35;10.50;67.10
37910;DHT22;23741;49.446;8.754;2023-02-02T01:09:36;10.50;67.20
37910;DHT22;23741;49.446;8.754;2023-02-02T01:11:38;10.50;67.00
37910;DHT22;23741;49.446;8.754;2023-02-02T01:13:40;10.50;67.00
37910;DHT22;23741;49.446;8.754;2023-02-02T01:15:42;10.40;67.10
37910;DHT22;23741;49.446;8.754;2023-02-02T01:17:44;10.50;67.30
37910;DHT22;23741;49.446;8.754;2023-02-02T01:19:46;10.50;67.40
37910;DHT22;23741;49.446;8.754;2023-02-02T01:21:48;10.50;67.40
37910;DHT22;23741;49.446;8.754;2023-02-02T01:23:53;10.50;67.50
37910;DHT22;23741;49.446;8.754;2023-02-02T01:25:56;10.50;67.70
37910;DHT22;23741;49.446;8.754;2023-02-02T01:27:58;10.50;67.70
37910;DHT22;23741;49.446;8.754;2023-02-02T01:30:01;10.40;67.50
37910;DHT22;23741;49.446;8.754;2023-02-02T01:32:03;10.50;67.60
37910;DHT22;23741;49.446;8.754;2023-02-02T01:34:05;10.50;67.20
37910;DHT22;23741;49.446;8.754;2023-02-02T01:36:09;10.50;67.30
37910;DHT22;23741;49.446;8.754;2023-02-02T01:38:11;10.50;67.50
37910;DHT22;23741;49.446;8.754;2023-02-02T01:40:13;10.50;67.60
37910;DHT22;23741;49.446;8.754;2023-02-02T01:42:20;10.50;67.60
37910;DHT22;23741;49.446;8.754;2023-02-02T01:46:42;10.50;67.80
37910;DHT22;23741;49.446;8.754;2023-02-02T01:51:05;10.50;67.90
37910;DHT22;23741;49.446;8.754;2023-02-02T01:53:08;10.50;68.00
37910;DHT22;23741;49.446;8.754;2023-02-02T01:55:10;10.50;67.80
37910;DHT22;23741;49.446;8.754;2023-02-02T01:57:14;10.50;67.70
37910;DHT22;23741;49.446;8.754;2023-02-02T01:59:17;10.50;67.70
37910;DHT22;23741;49.446;8.754;2023-02-02T02:01:19;10.50;68.60
37910;DHT22;23741;49.446;8.754;2023-02-02T02:03:21;10.50;68.00
37910;DHT22;23741;49.446;8.754;2023-02-02T02:05:26;10.50;67.80
37910;DHT22;23741;49.446;8.754;2023-02-02T02:07:28;10.50;67.70
37910;DHT22;23741;49.446;8.754;2023-02-02T02:09:30;10.40;67.60
37910;DHT22;23741;49.446;8.754;2023-02-02T02:11:33;10.50;67.60
37910;DHT22;23741;49.446;8.754;2023-02-02T02:13:36;10.40;67.70
37910;DHT22;23741;49.446;8.754;2023-02-02T02:16:06;10.40;67.50
37910;DHT22;23741;49.446;8.754;2023-02-02T02:22:58;10.40;67.90
37910;DHT22;23741;49.446;8.754;2023-02-02T02:40:50;10.40;67.60
37910;DHT22;23741;49.446;8.754;2023-02-02T02:42:55;10.30;67.60
37910;DHT22;23741;49.446;8.754;2023-02-02T02:45:00;10.30;67.70
37910;DHT22;23741;49.446;8.754;2023-02-02T02:47:03;10.30;67.40
37910;DHT22;23741;49.446;8.754;2023-02-02T02:49:06;10.30;67.40
37910;DHT22;23741;49.446;8.754;2023-02-02T02:53:29;10.30;67.70
37910;DHT22;23741;49.446;8.754;2023-02-02T02:55:35;10.30;68.00
37910;DHT22;23741;49.446;8.754;2023-02-02T02:57:52;10.30;68.00
37910;DHT22;23741;49.446;8.754;2023-02-02T03:00:09;10.30;68.30
37910;DHT22;23741;49.446;8.754;2023-02-02T03:04:23;10.30;68.10
37910;DHT22;23741;49.446;8.754;2023-02-02T03:06:34;10.30;68.00
37910;DHT22;23741;49.446;8.754;2023-02-02T03:08:48;10.30;68.20
37910;DHT22;23741;49.446;8.754;2023-02-02T03:10:53;10.30;68.20
37910;DHT22;23741;49.446;8.754;2023-02-02T03:12:55;10.30;68.20
37910;DHT22;23741;49.446;8.754;2023-02-02T03:14:58;10.30;67.90
37910;DHT22;23741;49.446;8.754;2023-02-02T03:16:59;10.30;68.00
37910;DHT22;23741;49.446;8.754;2023-02-02T03:19:01;10.30;68.10
37910;DHT22;23741;49.446;8.754;2023-02-02T03:21:04;10.30;68.00
37910;DHT22;23741;49.446;8.754;2023-02-02T03:23:06;10.30;68.00
37910;DHT22;23741;49.446;8.754;2023-02-02T03:25:08;10.30;68.20
37910;DHT22;23741;49.446;8.754;2023-02-02T03:27:11;10.30;68.30
37910;DHT22;23741;49.446;8.754;2023-02-02T03:29:13;10.40;68.60
37910;DHT22;23741;49.446;8.754;2023-02-02T03:31:15;10.30;68.50
37910;DHT22;23741;49.446;8.754;2023-02-02T03:33:16;10.40;68.50
37910;DHT22;23741;49.446;8.754;2023-02-02T03:35:19;10.40;68.40
37910;DHT22;23741;49.446;8.754;2023-02-02T03:37:24;10.40;68.40
37910;DHT22;23741;49.446;8.754;2023-02-02T03:39:26;10.40;68.40
37910;DHT22;23741;49.446;8.754;2023-02-02T03:41:28;10.40;68.50
37910;DHT22;23741;49.446;8.754;2023-02-02T03:43:29;10.30;68.40
37910;DHT22;23741;49.446;8.754;2023-02-02T03:45:31;10.40;68.40
37910;DHT22;23741;49.446;8.754;2023-02-02T03:47:35;10.40;68.40
37910;DHT22;23741;49.446;8.754;2023-02-02T03:49:37;10.40;68.50
37910;DHT22;23741;49.446;8.754;2023-02-02T03:51:38;10.30;68.50
37910;DHT22;23741;49.446;8.754;2023-02-02T03:53:41;10.40;68.60
37910;DHT22;23741;49.446;8.754;2023-02-02T03:55:47;10.40;68.70
37910;DHT22;23741;49.446;8.754;2023-02-02T03:57:49;10.40;68.70
37910;DHT22;23741;49.446;8.754;2023-02-02T03:59:51;10.40;68.60
37910;DHT22;23741;49.446;8.754;2023-02-02T04:01:52;10.40;68.50
37910;DHT22;23741;49.446;8.754;2023-02-02T04:03:54;10.40;68.40
37910;DHT22;23741;49.446;8.754;2023-02-02T04:05:56;10.40;68.30
37910;DHT22;23741;49.446;8.754;2023-02-02T04:07:58;10.40;68.20
37910;DHT22;23741;49.446;8.754;2023-02-02T04:10:02;10.40;68.40
37910;DHT22;23741;49.446;8.754;2023-02-02T04:12:04;10.40;68.60
37910;DHT22;23741;49.446;8.754;2023-02-02T04:14:05;10.40;68.60
37910;DHT22;23741;49.446;8.754;2023-02-02T04:16:07;10.40;68.70
37910;DHT22;23741;49.446;8.754;2023-02-02T04:18:09;10.50;68.80
37910;DHT22;23741;49.446;8.754;2023-02-02T04:20:11;10.50;69.10
37910;DHT22;23741;49.446;8.754;2023-02-02T04:22:13;10.50;69.00
37910;DHT22;23741;49.446;8.754;2023-02-02T04:24:14;10.50;69.00
37910;DHT22;23741;49.446;8.754;2023-02-02T04:26:16;10.50;68.90
37910;DHT22;23741;49.446;8.754;2023-02-02T04:28:18;10.50;68.70
37910;DHT22;23741;49.446;8.754;2023-02-02T04:30:19;10.50;68.70
37910;DHT22;23741;49.446;8.754;2023-02-02T04:32:21;10.50;68.70
37910;DHT22;23741;49.446;8.754;2023-02-02T04:34:23;10.50;68.80
37910;DHT22;23741;49.446;8.754;2023-02-02T04:36:25;10.50;68.80
37910;DHT22;23741;49.446;8.754;2023-02-02T04:38:26;10.50;68.60
37910;DHT22;23741;49.446;8.754;2023-02-02T04:40:28;10.50;68.60
37910;DHT22;23741;49.446;8.754;2023-02-02T04:42:30;10.50;68.60
37910;DHT22;23741;49.446;8.754;2023-02-02T04:44:33;10.50;68.20
37910;DHT22;23741;49.446;8.754;2023-02-02T04:46:34;10.50;68.20
37910;DHT22;23741;49.446;8.754;2023-02-02T04:48:36;10.50;68.20
37910;DHT22;23741;49.446;8.754;2023-02-02T04:50:38;10.50;68.40
37910;DHT22;23741;49.446;8.754;2023-02-02T04:52:40;10.50;68.20
37910;DHT22;23741;49.446;8.754;2023-02-02T04:54:41;10.50;68.10
37910;DHT22;23741;49.446;8.754;2023-02-02T04:56:43;10.50;68.30
37910;DHT22;23741;49.446;8.754;2023-02-02T04:58:45;10.50;68.40
37910;DHT22;23741;49.446;8.754;2023-02-02T05:00:46;10.50;68.50
37910;DHT22;23741;49.446;8.754;2023-02-02T05:02:48;10.40;68.60
37910;DHT22;23741;49.446;8.754;2023-02-02T05:04:50;10.40;68.70
37910;DHT22;23741;49.446;8.754;2023-02-02T05:06:52;10.40;68.80
37910;DHT22;23741;49.446;8.754;2023-02-02T05:08:53;10.50;69.00
37910;DHT22;23741;49.446;8.754;2023-02-02T05:10:55;10.50;69.00
37910;DHT22;23741;49.446;8.754;2023-02-02T05:12:56;10.50;69.00
37910;DHT22;23741;49.446;8.754;2023-02-02T05:14:58;10.50;69.00
37910;DHT22;23741;49.446;8.754;2023-02-02T05:17:05;10.50;69.10
37910;DHT22;23741;49.446;8.754;2023-02-02T05:19:08;10.50;69.00
37910;DHT22;23741;49.446;8.754;2023-02-02T05:21:10;10.50;69.00
37910;DHT22;23741;49.446;8.754;2023-02-02T05:23:12;10.50;69.00
37910;DHT22;23741;49.446;8.754;2023-02-02T05:25:14;10.60;69.10
37910;DHT22;23741;49.446;8.754;2023-02-02T05:27:15;10.60;69.20
37910;DHT22;23741;49.446;8.754;2023-02-02T05:29:17;10.60;69.30
37910;DHT22;23741;49.446;8.754;2023-02-02T05:31:19;10.60;69.30
37910;DHT22;23741;49.446;8.754;2023-02-02T05:33:21;10.60;69.40
37910;DHT22;23741;49.446;8.754;2023-02-02T05:35:22;10.60;69.40
37910;DHT22;23741;49.446;8.754;2023-02-02T05:37:25;10.60;69.60
37910;DHT22;23741;49.446;8.754;2023-02-02T05:39:26;10.60;69.60
37910;DHT22;23741;49.446;8.754;2023-02-02T05:41:28;10.60;69.40
37910;DHT22;23741;49.446;8.754;2023-02-02T05:43:30;10.60;69.30
37910;DHT22;23741;49.446;8.754;2023-02-02T05:45:32;10.60;69.20
37910;DHT22;23741;49.446;8.754;2023-02-02T05:47:34;10.70;69.30
37910;DHT22;23741;49.446;8.754;2023-02-02T05:49:36;10.70;69.20
37910;DHT22;23741;49.446;8.754;2023-02-02T05:51:38;10.70;69.10
37910;DHT22;23741;49.446;8.754;2023-02-02T05:53:41;10.70;69.20
37910;DHT22;23741;49.446;8.754;2023-02-02T05:55:45;10.70;69.20
37910;DHT22;23741;49.446;8.754;2023-02-02T05:57:47;10.70;69.30
37910;DHT22;23741;49.446;8.754;2023-02-02T05:59:48;10.70;69.40
37910;DHT22;23741;49.446;8.754;2023-02-02T06:01:50;10.70;69.50
37910;DHT22;23741;49.446;8.754;2023-02-02T06:03:52;10.70;69.40
37910;DHT22;23741;49.446;8.754;2023-02-02T06:05:54;10.70;69.30
37910;DHT22;23741;49.446;8.754;2023-02-02T06:07:55;10.80;69.30
37910;DHT22;23741;49.446;8.754;2023-02-02T06:09:57;10.70;69.20
37910;DHT22;23741;49.446;8.754;2023-02-02T06:11:59;10.70;69.20
37910;DHT22;23741;49.446;8.754;2023-02-02T06:14:00;10.80;69.10
37910;DHT22;23741;49.446;8.754;2023-02-02T06:16:02;10.80;69.10
37910;DHT22;23741;49.446;8.754;2023-02-02T06:18:04;10.80;69.00
37910;DHT22;23741;49.446;8.754;2023-02-02T06:20:09;10.80;68.80
37910;DHT22;23741;49.446;8.754;2023-02-02T06:22:10;10.80;68.80
37910;DHT22;23741;49.446;8.754;2023-02-02T06:24:12;10.80;68.90
37910;DHT22;23741;49.446;8.754;2023-02-02T06:26:14;10.80;69.00
37910;DHT22;23741;49.446;8.754;2023-02-02T06:28:16;10.70;68.80
37910;DHT22;23741;49.446;8.754;2023-02-02T06:30:17;10.80;68.70
37910;DHT22;23741;49.446;8.754;2023-02-02T06:32:19;10.70;68.50
37910;DHT22;23741;49.446;8.754;2023-02-02T06:34:21;10.70;68.60
37910;DHT22;23741;49.446;8.754;2023-02-02T06:36:23;10.70;68.60
37910;DHT22;23741;49.446;8.754;2023-02-02T06:38:25;10.70;68.70
37910;DHT22;23741;49.446;8.754;2023-02-02T06:40:27;10.70;68.60
37910;DHT22;23741;49.446;8.754;2023-02-02T06:42:28;10.70;68.60
37910;DHT22;23741;49.446;8.754;2023-02-02T06:44:31;10.70;68.70
37910;DHT22;23741;49.446;8.754;2023-02-02T06:46:32;10.70;68.60
37910;DHT22;23741;49.446;8.754;2023-02-02T06:48:34;10.70;68.60
37910;DHT22;23741;49.446;8.754;2023-02-02T06:50:36;10.70;68.60
37910;DHT22;23741;49.446;8.754;2023-02-02T06:52:38;10.70;68.60
37910;DHT22;23741;49.446;8.754;2023-02-02T06:54:40;10.70;68.60
37910;DHT22;23741;49.446;8.754;2023-02-02T06:56:42;10.70;68.50
37910;DHT22;23741;49.446;8.754;2023-02-02T06:58:43;10.70;68.50
37910;DHT22;23741;49.446;8.754;2023-02-02T07:00:45;10.70;68.60
37910;DHT22;23741;49.446;8.754;2023-02-02T07:02:47;10.70;68.50
37910;DHT22;23741;49.446;8.754;2023-02-02T07:04:49;10.70;68.60
37910;DHT22;23741;49.446;8.754;2023-02-02T07:06:51;10.70;68.60
37910;DHT22;23741;49.446;8.754;2023-02-02T07:08:53;10.70;68.60
37910;DHT22;23741;49.446;8.754;2023-02-02T07:11:03;10.70;69.40
37910;DHT22;23741;49.446;8.754;2023-02-02T07:13:16;10.70;68.40
37910;DHT22;23741;49.446;8.754;2023-02-02T07:15:18;10.70;68.20
37910;DHT22;23741;49.446;8.754;2023-02-02T07:17:20;10.70;68.10
37910;DHT22;23741;49.446;8.754;2023-02-02T07:19:21;10.70;68.30
37910;DHT22;23741;49.446;8.754;2023-02-02T07:21:23;10.70;68.30
37910;DHT22;23741;49.446;8.754;2023-02-02T07:23:26;10.70;68.20
37910;DHT22;23741;49.446;8.754;2023-02-02T07:25:28;10.70;68.20
37910;DHT22;23741;49.446;8.754;2023-02-02T07:27:29;10.60;68.20
37910;DHT22;23741;49.446;8.754;2023-02-02T07:29:31;10.60;68.30
37910;DHT22;23741;49.446;8.754;2023-02-02T07:31:33;10.60;68.20
37910;DHT22;23741;49.446;8.754;2023-02-02T07:33:37;10.60;68.40
37910;DHT22;23741;49.446;8.754;2023-02-02T07:35:40;10.60;68.20
37910;DHT22;23741;49.446;8.754;2023-02-02T07:37:42;10.60;68.30
37910;DHT22;23741;49.446;8.754;2023-02-02T07:39:44;10.60;68.20
37910;DHT22;23741;49.446;8.754;2023-02-02T07:41:46;10.60;68.20
37910;DHT22;23741;49.446;8.754;2023-02-02T07:43:58;10.60;68.20
37910;DHT22;23741;49.446;8.754;2023-02-02T07:46:00;10.60;68.20
37910;DHT22;23741;49.446;8.754;2023-02-02T07:48:03;10.60;68.20
37910;DHT22;23741;49.446;8.754;2023-02-02T07:50:05;10.60;68.40
37910;DHT22;23741;49.446;8.754;2023-02-02T07:52:07;10.60;68.50
37910;DHT22;23741;49.446;8.754;2023-02-02T07:54:08;10.60;68.70
37910;DHT22;23741;49.446;8.754;2023-02-02T07:58:15;10.60;68.80
37910;DHT22;23741;49.446;8.754;2023-02-02T08:00:17;10.60;68.90
37910;DHT22;23741;49.446;8.754;2023-02-02T08:02:19;10.60;68.80
37910;DHT22;23741;49.446;8.754;2023-02-02T08:04:20;10.60;68.80
37910;DHT22;23741;49.446;8.754;2023-02-02T08:06:26;10.60;68.80
37910;DHT22;23741;49.446;8.754;2023-02-02T08:08:32;10.60;68.70
37910;DHT22;23741;49.446;8.754;2023-02-02T08:10:34;10.60;68.70
37910;DHT22;23741;49.446;8.754;2023-02-02T08:12:36;10.60;68.70
37910;DHT22;23741;49.446;8.754;2023-02-02T08:14:37;10.60;68.80
37910;DHT22;23741;49.446;8.754;2023-02-02T08:16:39;10.70;69.00
37910;DHT22;23741;49.446;8.754;2023-02-02T08:18:41;10.70;69.10
37910;DHT22;23741;49.446;8.754;2023-02-02T08:20:44;10.70;69.10
37910;DHT22;23741;49.446;8.754;2023-02-02T08:22:45;10.70;68.90
37910;DHT22;23741;49.446;8.754;2023-02-02T08:24:47;10.70;68.90
37910;DHT22;23741;49.446;8.754;2023-02-02T08:26:49;10.70;68.80
37910;DHT22;23741;49.446;8.754;2023-02-02T08:28:53;10.70;68.90
37910;DHT22;23741;49.446;8.754;2023-02-02T08:30:55;10.70;69.00
37910;DHT22;23741;49.446;8.754;2023-02-02T08:32:57;10.70;69.00
37910;DHT22;23741;49.446;8.754;2023-02-02T08:34:58;10.70;69.00
37910;DHT22;23741;49.446;8.754;2023-02-02T08:37:00;10.70;69.00
37910;DHT22;23741;49.446;8.754;2023-02-02T08:39:06;10.70;69.00
37910;DHT22;23741;49.446;8.754;2023-02-02T08:41:09;10.70;69.00
37910;DHT22;23741;49.446;8.754;2023-02-02T08:43:11;10.80;68.90
37910;DHT22;23741;49.446;8.754;2023-02-02T08:45:17;10.80;69.70
37910;DHT22;23741;49.446;8.754;2023-02-02T08:47:38;10.80;68.90
37910;DHT22;23741;49.446;8.754;2023-02-02T08:49:40;10.80;69.00
37910;DHT22;23741;49.446;8.754;2023-02-02T08:51:42;10.80;68.90
37910;DHT22;23741;49.446;8.754;2023-02-02T08:53:44;10.80;68.90
37910;DHT22;23741;49.446;8.754;2023-02-02T08:55:47;10.80;68.90
37910;DHT22;23741;49.446;8.754;2023-02-02T08:57:48;10.80;68.80
37910;DHT22;23741;49.446;8.754;2023-02-02T08:59:50;10.80;68.70
37910;DHT22;23741;49.446;8.754;2023-02-02T09:01:52;10.80;68.60
37910;DHT22;23741;49.446;8.754;2023-02-02T09:03:54;10.80;68.60
37910;DHT22;23741;49.446;8.754;2023-02-02T09:05:56;10.80;68.70
37910;DHT22;23741;49.446;8.754;2023-02-02T09:07:58;10.80;68.70
37910;DHT22;23741;49.446;8.754;2023-02-02T09:10:00;10.80;68.70
37910;DHT22;23741;49.446;8.754;2023-02-02T09:12:01;10.80;68.70
37910;DHT22;23741;49.446;8.754;2023-02-02T09:14:09;10.80;68.80
37910;DHT22;23741;49.446;8.754;2023-02-02T09:16:13;10.80;68.80
37910;DHT22;23741;49.446;8.754;2023-02-02T09:18:14;10.90;68.90
37910;DHT22;23741;49.446;8.754;2023-02-02T09:20:16;10.90;69.00
37910;DHT22;23741;49.446;8.754;2023-02-02T09:22:20;10.90;68.90
37910;DHT22;23741;49.446;8.754;2023-02-02T09:24:22;10.90;69.00
37910;DHT22;23741;49.446;8.754;2023-02-02T09:26:25;10.90;69.00
37910;DHT22;23741;49.446;8.754;2023-02-02T09:28:27;10.90;69.00
37910;DHT22;23741;49.446;8.754;2023-02-02T09:30:28;10.90;68.80
37910;DHT22;23741;49.446;8.754;2023-02-02T09:32:30;11.00;68.80
37910;DHT22;23741;49.446;8.754;2023-02-02T09:34:32;11.00;68.70
37910;DHT22;23741;49.446;8.754;2023-02-02T09:36:34;11.00;68.80
37910;DHT22;23741;49.446;8.754;2023-02-02T09:38:36;11.00;68.70
37910;DHT22;23741;49.446;8.754;2023-02-02T09:40:38;11.00;68.70
37910;DHT22;23741;49.446;8.754;2023-02-02T09:42:43;11.00;68.60
37910;DHT22;23741;49.446;8.754;2023-02-02T09:45:05;11.00;68.50
37910;DHT22;23741;49.446;8.754;2023-02-02T09:49:16;11.00;68.50
37910;DHT22;23741;49.446;8.754;2023-02-02T09:51:22;11.10;68.60
37910;DHT22;23741;49.446;8.754;2023-02-02T09:55:38;11.10;68.70
37910;DHT22;23741;49.446;8.754;2023-02-02T09:57:42;11.10;68.70
37910;DHT22;23741;49.446;8.754;2023-02-02T09:59:45;11.10;68.60
37910;DHT22;23741;49.446;8.754;2023-02-02T10:01:50;11.10;68.50
37910;DHT22;23741;49.446;8.754;2023-02-02T10:08:38;11.20;68.40
37910;DHT22;23741;49.446;8.754;2023-02-02T10:10:41;11.20;68.20
37910;DHT22;23741;49.446;8.754;2023-02-02T10:16:52;11.20;68.20
37910;DHT22;23741;49.446;8.754;2023-02-02T10:18:58;11.20;68.10
37910;DHT22;23741;49.446;8.754;2023-02-02T10:21:03;11.20;68.00
37910;DHT22;23741;49.446;8.754;2023-02-02T10:23:24;11.30;68.00
37910;DHT22;23741;49.446;8.754;2023-02-02T10:25:27;11.30;68.00
37910;DHT22;23741;49.446;8.754;2023-02-02T10:27:32;11.30;67.80
37910;DHT22;23741;49.446;8.754;2023-02-02T10:29:44;11.30;67.80
37910;DHT22;23741;49.446;8.754;2023-02-02T10:34:12;11.20;68.00
37910;DHT22;23741;49.446;8.754;2023-02-02T10:36:18;11.30;68.00
37910;DHT22;23741;49.446;8.754;2023-02-02T10:44:39;11.30;68.00
37910;DHT22;23741;49.446;8.754;2023-02-02T10:46:44;11.30;68.00
37910;DHT22;23741;49.446;8.754;2023-02-02T10:48:47;11.30;68.00
37910;DHT22;23741;49.446;8.754;2023-02-02T10:50:50;11.40;68.00
37910;DHT22;23741;49.446;8.754;2023-02-02T10:52:55;11.40;68.10
37910;DHT22;23741;49.446;8.754;2023-02-02T10:55:14;11.40;68.10
37910;DHT22;23741;49.446;8.754;2023-02-02T10:57:24;11.40;67.90
37910;DHT22;23741;49.446;8.754;2023-02-02T10:59:31;11.40;67.90
37910;DHT22;23741;49.446;8.754;2023-02-02T11:01:33;11.40;67.80
37910;DHT22;23741;49.446;8.754;2023-02-02T11:03:35;11.40;67.70
37910;DHT22;23741;49.446;8.754;2023-02-02T11:05:38;11.50;67.70
37910;DHT22;23741;49.446;8.754;2023-02-02T11:07:58;11.40;67.40
37910;DHT22;23741;49.446;8.754;2023-02-02T11:10:00;11.50;67.60
37910;DHT22;23741;49.446;8.754;2023-02-02T11:14:28;11.50;67.70
37910;DHT22;23741;49.446;8.754;2023-02-02T11:16:31;11.50;67.80
37910;DHT22;23741;49.446;8.754;2023-02-02T11:18:43;11.50;67.80
37910;DHT22;23741;49.446;8.754;2023-02-02T11:20:45;11.50;67.80
37910;DHT22;23741;49.446;8.754;2023-02-02T11:22:47;11.50;67.80
37910;DHT22;23741;49.446;8.754;2023-02-02T11:25:06;11.50;67.70
37910;DHT22;23741;49.446;8.754;2023-02-02T11:29:21;11.50;67.50
37910;DHT22;23741;49.446;8.754;2023-02-02T11:31:43;11.50;67.50
37910;DHT22;23741;49.446;8.754;2023-02-02T11:33:45;11.50;67.50
37910;DHT22;23741;49.446;8.754;2023-02-02T11:35:54;11.50;67.60
37910;DHT22;23741;49.446;8.754;2023-02-02T11:37:57;11.50;67.60
37910;DHT22;23741;49.446;8.754;2023-02-02T11:42:22;11.50;67.70
37910;DHT22;23741;49.446;8.754;2023-02-02T11:44:25;11.50;67.60
37910;DHT22;23741;49.446;8.754;2023-02-02T11:46:28;11.50;67.50
37910;DHT22;23741;49.446;8.754;2023-02-02T11:48:35;11.50;67.40
37910;DHT22;23741;49.446;8.754;2023-02-02T11:50:37;11.50;67.50
37910;DHT22;23741;49.446;8.754;2023-02-02T11:52:39;11.50;67.60
37910;DHT22;23741;49.446;8.754;2023-02-02T11:54:40;11.50;67.50
37910;DHT22;23741;49.446;8.754;2023-02-02T11:56:49;11.50;67.50
37910;DHT22;23741;49.446;8.754;2023-02-02T11:58:53;11.40;67.50
37910;DHT22;23741;49.446;8.754;2023-02-02T12:00:58;11.50;67.70
37910;DHT22;23741;49.446;8.754;2023-02-02T12:03:00;11.50;67.80
37910;DHT22;23741;49.446;8.754;2023-02-02T12:09:26;11.50;67.60
37910;DHT22;23741;49.446;8.754;2023-02-02T12:13:41;11.50;67.30
37910;DHT22;23741;49.446;8.754;2023-02-02T12:16:08;11.50;67.20
37910;DHT22;23741;49.446;8.754;2023-02-02T12:24:47;11.40;67.40
37910;DHT22;23741;49.446;8.754;2023-02-02T12:29:22;11.40;67.30
37910;DHT22;23741;49.446;8.754;2023-02-02T12:35:52;11.50;67.20
37910;DHT22;23741;49.446;8.754;2023-02-02T12:40:21;11.50;67.20
37910;DHT22;23741;49.446;8.754;2023-02-02T12:49:16;11.50;67.50
37910;DHT22;23741;49.446;8.754;2023-02-02T12:55:59;11.50;67.40
37910;DHT22;23741;49.446;8.754;2023-02-02T13:02:34;11.50;67.40
37910;DHT22;23741;49.446;8.754;2023-02-02T13:07:06;11.60;67.50
37910;DHT22;23741;49.446;8.754;2023-02-02T13:11:14;11.60;67.40
37910;DHT22;23741;49.446;8.754;2023-02-02T13:13:32;11.60;68.20
37910;DHT22;23741;49.446;8.754;2023-02-02T13:15:35;11.60;67.10
37910;DHT22;23741;49.446;8.754;2023-02-02T13:17:41;11.60;67.20
37910;DHT22;23741;49.446;8.754;2023-02-02T13:19:45;11.60;67.20
37910;DHT22;23741;49.446;8.754;2023-02-02T13:21:48;11.60;68.20
37910;DHT22;23741;49.446;8.754;2023-02-02T13:23:52;11.70;67.30
37910;DHT22;23741;49.446;8.754;2023-02-02T13:26:00;11.70;67.30
37910;DHT22;23741;49.446;8.754;2023-02-02T13:28:03;11.70;67.30
37910;DHT22;23741;49.446;8.754;2023-02-02T13:30:16;11.70;68.10
37910;DHT22;23741;49.446;8.754;2023-02-02T13:32:32;11.70;67.20
37910;DHT22;23741;49.446;8.754;2023-02-02T13:36:56;11.80;67.30
37910;DHT22;23741;49.446;8.754;2023-02-02T13:39:00;11.80;67.30
37910;DHT22;23741;49.446;8.754;2023-02-02T13:41:04;11.80;67.20
37910;DHT22;23741;49.446;8.754;2023-02-02T13:45:24;11.80;67.20
37910;DHT22;23741;49.446;8.754;2023-02-02T13:47:40;11.80;67.20
37910;DHT22;23741;49.446;8.754;2023-02-02T13:49:44;11.80;67.00
37910;DHT22;23741;49.446;8.754;2023-02-02T14:00:26;11.80;67.00
37910;DHT22;23741;49.446;8.754;2023-02-02T14:02:32;11.80;66.80
37910;DHT22;23741;49.446;8.754;2023-02-02T14:04:36;11.80;66.90
37910;DHT22;23741;49.446;8.754;2023-02-02T14:09:05;11.80;66.80
37910;DHT22;23741;49.446;8.754;2023-02-02T14:11:13;11.80;67.00
37910;DHT22;23741;49.446;8.754;2023-02-02T14:13:16;11.80;67.00
37910;DHT22;23741;49.446;8.754;2023-02-02T14:15:38;11.80;67.00
37910;DHT22;23741;49.446;8.754;2023-02-02T14:23:52;11.90;67.10
37910;DHT22;23741;49.446;8.754;2023-02-02T14:26:04;11.90;67.10
37910;DHT22;23741;49.446;8.754;2023-02-02T14:28:10;11.90;67.00
37910;DHT22;23741;49.446;8.754;2023-02-02T14:30:17;11.90;67.00
37910;DHT22;23741;49.446;8.754;2023-02-02T14:32:30;11.90;67.00
37910;DHT22;23741;49.446;8.754;2023-02-02T14:34:35;11.90;66.90
37910;DHT22;23741;49.446;8.754;2023-02-02T14:36:39;11.90;66.70
37910;DHT22;23741;49.446;8.754;2023-02-02T14:43:53;11.90;66.90
37910;DHT22;23741;49.446;8.754;2023-02-02T14:50:21;11.90;66.80
37910;DHT22;23741;49.446;8.754;2023-02-02T14:52:24;11.90;66.80
37910;DHT22;23741;49.446;8.754;2023-02-02T14:54:29;11.90;66.70
37910;DHT22;23741;49.446;8.754;2023-02-02T14:56:39;11.90;66.70
37910;DHT22;23741;49.446;8.754;2023-02-02T14:58:45;11.90;66.80
37910;DHT22;23741;49.446;8.754;2023-02-02T15:00:55;11.90;66.80
37910;DHT22;23741;49.446;8.754;2023-02-02T15:03:19;11.90;66.70
37910;DHT22;23741;49.446;8.754;2023-02-02T15:09:35;11.90;67.00
37910;DHT22;23741;49.446;8.754;2023-02-02T15:14:04;12.00;67.00
37910;DHT22;23741;49.446;8.754;2023-02-02T15:16:18;12.00;67.00
37910;DHT22;23741;49.446;8.754;2023-02-02T15:18:27;12.00;66.90
37910;DHT22;23741;49.446;8.754;2023-02-02T15:20:40;12.00;66.80
37910;DHT22;23741;49.446;8.754;2023-02-02T15:25:11;12.00;66.80